createdAt,value
2019-05-15T00:00:42.286Z,1029.44
2019-05-15T00:01:48.772Z,1029.44
2019-05-15T00:02:50.678Z,1029.44
2019-05-15T00:03:54.851Z,1029.43
2019-05-15T00:04:59.045Z,1029.43
2019-05-15T00:06:03.262Z,1029.45
2019-05-15T00:07:08.902Z,1029.43
2019-05-15T00:08:11.617Z,1029.43
2019-05-15T00:09:15.802Z,1029.40
2019-05-15T00:10:19.995Z,1029.40
2019-05-15T00:11:24.171Z,1029.38
2019-05-15T00:12:28.621Z,1029.37
2019-05-15T00:13:32.524Z,1029.33
2019-05-15T00:14:38.861Z,1029.30
2019-05-15T00:15:41.053Z,1029.31
2019-05-15T00:16:45.245Z,1029.28
2019-05-15T00:17:49.399Z,1029.26
2019-05-15T00:18:53.652Z,1029.28
2019-05-15T00:19:58.182Z,1029.27
2019-05-15T00:21:02.047Z,1029.25
2019-05-15T00:22:08.524Z,1029.26
2019-05-15T00:23:10.409Z,1029.27
2019-05-15T00:24:14.597Z,1029.26
2019-05-15T00:25:18.957Z,1029.25
2019-05-15T00:26:22.892Z,1029.24
2019-05-15T00:27:28.515Z,1029.25
2019-05-15T00:28:31.259Z,1029.25
2019-05-15T00:29:38.496Z,1029.26
2019-05-15T00:30:41.691Z,1029.23
2019-05-15T00:31:48.348Z,1029.24
2019-05-15T00:32:50.022Z,1029.22
2019-05-15T00:33:54.272Z,1029.23
2019-05-15T00:34:58.520Z,1029.23
2019-05-15T00:36:02.681Z,1029.19
2019-05-15T00:37:08.993Z,1029.20
2019-05-15T00:38:11.088Z,1029.21
2019-05-15T00:39:15.353Z,1029.20
2019-05-15T00:40:19.553Z,1029.19
2019-05-15T00:41:23.671Z,1029.18
2019-05-15T00:42:28.470Z,1029.16
2019-05-15T00:43:32.055Z,1029.14
2019-05-15T00:44:38.535Z,1029.12
2019-05-15T00:45:40.362Z,1029.11
2019-05-15T00:46:44.502Z,1029.11
2019-05-15T00:47:48.898Z,1029.11
2019-05-15T00:48:52.745Z,1029.13
2019-05-15T00:49:58.104Z,1029.11
2019-05-15T00:51:01.182Z,1029.09
2019-05-15T00:52:05.416Z,1029.10
2019-05-15T00:53:09.530Z,1029.10
2019-05-15T00:54:13.681Z,1029.07
2019-05-15T00:55:19.122Z,1029.07
2019-05-15T00:56:22.072Z,1029.04
2019-05-15T00:57:28.354Z,1029.01
2019-05-15T00:58:30.468Z,1028.99
2019-05-15T00:59:34.634Z,1028.96
2019-05-15T01:00:38.792Z,1028.97
2019-05-15T01:01:42.990Z,1028.93
2019-05-15T01:02:48.687Z,1028.93
2019-05-15T01:03:51.347Z,1028.92
2019-05-15T01:04:55.504Z,1028.92
2019-05-15T01:05:59.700Z,1028.90
2019-05-15T01:07:03.913Z,1028.89
2019-05-15T01:08:08.356Z,1028.88
2019-05-15T01:09:12.229Z,1028.89
2019-05-15T01:10:16.512Z,1028.87
2019-05-15T01:11:20.746Z,1028.85
2019-05-15T01:12:24.957Z,1028.82
2019-05-15T01:13:29.096Z,1028.83
2019-05-15T01:14:33.264Z,1028.82
2019-05-15T01:15:38.638Z,1028.82
2019-05-15T01:16:41.617Z,1028.80
2019-05-15T01:17:45.777Z,1028.81
2019-05-15T01:18:49.980Z,1028.79
2019-05-15T01:19:54.126Z,1028.78
2019-05-15T01:20:58.777Z,1028.79
2019-05-15T01:22:02.425Z,1028.79
2019-05-15T01:23:08.914Z,1028.81
2019-05-15T01:24:10.813Z,1028.79
2019-05-15T01:25:14.978Z,1028.80
2019-05-15T01:26:19.163Z,1028.79
2019-05-15T01:27:23.410Z,1028.80
2019-05-15T01:28:28.920Z,1028.78
2019-05-15T01:29:42.000Z,1028.77
2019-05-15T01:30:35.863Z,1028.76
2019-05-15T01:31:40.025Z,1028.77
2019-05-15T01:32:44.103Z,1028.77
2019-05-15T01:33:48.429Z,1028.77
2019-05-15T01:34:52.491Z,1028.76
2019-05-15T01:35:58.899Z,1028.75
2019-05-15T01:37:00.847Z,1028.73
2019-05-15T01:38:05.034Z,1028.73
2019-05-15T01:39:09.244Z,1028.71
2019-05-15T01:40:13.391Z,1028.69
2019-05-15T01:41:18.917Z,1028.68
2019-05-15T01:42:21.809Z,1028.66
2019-05-15T01:43:25.975Z,1028.64
2019-05-15T01:44:30.126Z,1028.64
2019-05-15T01:45:34.343Z,1028.65
2019-05-15T01:46:39.311Z,1028.62
2019-05-15T01:47:42.710Z,1028.62
2019-05-15T01:48:49.122Z,1028.61
2019-05-15T01:49:51.161Z,1028.60
2019-05-15T01:50:55.300Z,1028.58
2019-05-15T01:51:59.466Z,1028.58
2019-05-15T01:53:03.658Z,1028.61
2019-05-15T01:54:09.059Z,1028.60
2019-05-15T01:55:12.063Z,1028.58
2019-05-15T01:56:18.581Z,1028.58
2019-05-15T01:57:20.497Z,1028.58
2019-05-15T01:58:24.681Z,1028.57
2019-05-15T01:59:28.841Z,1028.55
2019-05-15T02:00:33.067Z,1028.55
2019-05-15T02:01:39.274Z,1028.51
2019-05-15T02:02:41.386Z,1028.51
2019-05-15T02:03:45.556Z,1028.53
2019-05-15T02:04:49.764Z,1028.52
2019-05-15T02:05:53.931Z,1028.53
2019-05-15T02:06:58.903Z,1028.54
2019-05-15T02:08:02.290Z,1028.55
2019-05-15T02:09:08.315Z,1028.52
2019-05-15T02:10:10.732Z,1028.53
2019-05-15T02:11:14.837Z,1028.53
2019-05-15T02:12:19.266Z,1028.51
2019-05-15T02:13:23.198Z,1028.51
2019-05-15T02:14:28.487Z,1028.49
2019-05-15T02:15:31.662Z,1028.49
2019-05-15T02:16:35.784Z,1028.52
2019-05-15T02:17:39.998Z,1028.50
2019-05-15T02:18:44.106Z,1028.50
2019-05-15T02:19:48.653Z,1028.51
2019-05-15T02:20:52.526Z,1028.51
2019-05-15T02:21:58.060Z,1028.51
2019-05-15T02:23:00.832Z,1028.50
2019-05-15T02:24:04.980Z,1028.48
2019-05-15T02:25:09.178Z,1028.49
2019-05-15T02:26:13.365Z,1028.46
2019-05-15T02:27:18.715Z,1028.47
2019-05-15T02:28:21.662Z,1028.45
2019-05-15T02:29:28.393Z,1028.44
2019-05-15T02:30:33.852Z,1028.43
2019-05-15T02:31:34.173Z,1028.42
2019-05-15T02:32:39.579Z,1028.40
2019-05-15T02:33:42.545Z,1028.38
2019-05-15T02:34:49.748Z,1028.40
2019-05-15T02:35:50.867Z,1028.41
2019-05-15T02:36:55.041Z,1028.43
2019-05-15T02:37:59.819Z,1028.42
2019-05-15T02:39:03.348Z,1028.41
2019-05-15T02:40:09.973Z,1028.44
2019-05-15T02:41:11.737Z,1028.44
2019-05-15T02:42:19.029Z,1028.42
2019-05-15T02:43:20.180Z,1028.42
2019-05-15T02:44:24.334Z,1028.42
2019-05-15T02:45:30.083Z,1028.41
2019-05-15T02:46:32.699Z,1028.41
2019-05-15T02:47:39.337Z,1028.37
2019-05-15T02:48:41.294Z,1028.38
2019-05-15T02:49:45.128Z,1028.37
2019-05-15T02:50:50.289Z,1028.34
2019-05-15T02:51:53.493Z,1028.34
2019-05-15T02:53:00.454Z,1028.31
2019-05-15T02:54:01.823Z,1028.31
2019-05-15T02:55:08.946Z,1028.30
2019-05-15T02:56:10.191Z,1028.32
2019-05-15T02:57:14.427Z,1028.29
2019-05-15T02:58:21.261Z,1028.29
2019-05-15T02:59:22.808Z,1028.26
2019-05-15T03:00:38.000Z,1028.29
2019-05-15T03:01:31.192Z,1028.26
2019-05-15T03:02:35.351Z,1028.27
2019-05-15T03:03:39.509Z,1028.27
2019-05-15T03:04:43.685Z,1028.27
2019-05-15T03:05:49.803Z,1028.29
2019-05-15T03:06:52.042Z,1028.29
2019-05-15T03:07:59.295Z,1028.30
2019-05-15T03:09:00.439Z,1028.29
2019-05-15T03:10:04.590Z,1028.29
2019-05-15T03:11:09.749Z,1028.31
2019-05-15T03:12:13.073Z,1028.29
2019-05-15T03:13:18.903Z,1028.30
2019-05-15T03:14:21.776Z,1028.31
2019-05-15T03:15:28.690Z,1028.28
2019-05-15T03:16:30.520Z,1028.27
2019-05-15T03:17:33.984Z,1028.26
2019-05-15T03:18:39.726Z,1028.24
2019-05-15T03:19:42.338Z,1028.24
2019-05-15T03:20:49.780Z,1028.23
2019-05-15T03:21:50.622Z,1028.23
2019-05-15T03:22:54.726Z,1028.22
2019-05-15T03:23:59.588Z,1028.22
2019-05-15T03:25:03.038Z,1028.19
2019-05-15T03:26:08.855Z,1028.21
2019-05-15T03:27:11.356Z,1028.21
2019-05-15T03:28:18.780Z,1028.21
2019-05-15T03:29:21.159Z,1028.19
2019-05-15T03:30:23.940Z,1028.18
2019-05-15T03:31:47.808Z,1028.17
2019-05-15T03:32:40.843Z,1028.17
2019-05-15T03:33:43.048Z,1028.14
2019-05-15T03:34:46.728Z,1028.15
2019-05-15T03:35:45.129Z,1028.12
2019-05-15T03:36:52.986Z,1028.09
2019-05-15T03:37:53.070Z,1028.10
2019-05-15T03:38:58.672Z,1028.07
2019-05-15T03:40:01.404Z,1028.09
2019-05-15T03:41:05.534Z,1028.09
2019-05-15T03:42:09.787Z,1028.09
2019-05-15T03:43:14.025Z,1028.07
2019-05-15T03:44:19.754Z,1028.04
2019-05-15T03:45:22.320Z,1028.07
2019-05-15T03:46:29.114Z,1028.04
2019-05-15T03:47:30.690Z,1028.03
2019-05-15T03:48:34.828Z,1028.03
2019-05-15T03:49:39.717Z,1028.00
2019-05-15T03:50:43.256Z,1028.01
2019-05-15T03:51:50.054Z,1027.99
2019-05-15T03:52:51.690Z,1027.99
2019-05-15T03:53:55.783Z,1028.00
2019-05-15T03:54:59.895Z,1027.96
2019-05-15T03:56:04.075Z,1027.97
2019-05-15T03:57:09.766Z,1027.96
2019-05-15T03:58:12.460Z,1027.94
2019-05-15T03:59:19.188Z,1027.92
2019-05-15T04:00:20.813Z,1027.92
2019-05-15T04:01:34.378Z,1027.92
2019-05-15T04:02:29.180Z,1027.92
2019-05-15T04:03:33.355Z,1027.91
2019-05-15T04:04:38.926Z,1027.88
2019-05-15T04:05:41.740Z,1027.88
2019-05-15T04:06:45.874Z,1027.88
2019-05-15T04:07:50.037Z,1027.89
2019-05-15T04:08:54.258Z,1027.89
2019-05-15T04:09:58.852Z,1027.90
2019-05-15T04:11:02.592Z,1027.88
2019-05-15T04:12:09.425Z,1027.91
2019-05-15T04:13:10.930Z,1027.88
2019-05-15T04:14:15.234Z,1027.86
2019-05-15T04:15:19.408Z,1027.88
2019-05-15T04:16:23.555Z,1027.87
2019-05-15T04:17:29.500Z,1027.86
2019-05-15T04:18:31.941Z,1027.87
2019-05-15T04:19:38.849Z,1027.87
2019-05-15T04:20:41.026Z,1027.86
2019-05-15T04:21:45.100Z,1027.85
2019-05-15T04:22:49.234Z,1027.85
2019-05-15T04:23:52.955Z,1027.85
2019-05-15T04:24:59.184Z,1027.85
2019-05-15T04:26:01.222Z,1027.84
2019-05-15T04:27:09.597Z,1027.85
2019-05-15T04:28:10.082Z,1027.85
2019-05-15T04:29:13.776Z,1027.84
2019-05-15T04:30:18.964Z,1027.84
2019-05-15T04:31:22.202Z,1027.83
2019-05-15T04:32:28.907Z,1027.83
2019-05-15T04:33:30.628Z,1027.84
2019-05-15T04:34:34.787Z,1027.86
2019-05-15T04:35:40.026Z,1027.86
2019-05-15T04:36:44.619Z,1027.83
2019-05-15T04:37:49.444Z,1027.85
2019-05-15T04:38:54.675Z,1027.83
2019-05-15T04:39:59.732Z,1027.84
2019-05-15T04:41:01.996Z,1027.86
2019-05-15T04:42:08.242Z,1027.86
2019-05-15T04:43:11.176Z,1027.86
2019-05-15T04:44:14.656Z,1027.84
2019-05-15T04:45:19.635Z,1027.85
2019-05-15T04:46:22.957Z,1027.84
2019-05-15T04:47:30.177Z,1027.82
2019-05-15T04:48:31.311Z,1027.82
2019-05-15T04:49:35.467Z,1027.81
2019-05-15T04:50:40.398Z,1027.79
2019-05-15T04:51:43.966Z,1027.78
2019-05-15T04:52:50.139Z,1027.73
2019-05-15T04:53:52.347Z,1027.74
2019-05-15T04:54:59.599Z,1027.71
2019-05-15T04:56:00.822Z,1027.70
2019-05-15T04:57:04.973Z,1027.67
2019-05-15T04:58:10.297Z,1027.63
2019-05-15T04:59:13.501Z,1027.61
2019-05-15T05:00:19.882Z,1027.58
2019-05-15T05:01:21.884Z,1027.58
2019-05-15T05:02:27.533Z,1027.55
2019-05-15T05:03:34.150Z,1027.54
2019-05-15T05:04:34.457Z,1027.52
2019-05-15T05:05:38.918Z,1027.49
2019-05-15T05:06:42.896Z,1027.48
2019-05-15T05:07:49.057Z,1027.48
2019-05-15T05:08:51.256Z,1027.49
2019-05-15T05:09:55.534Z,1027.48
2019-05-15T05:10:59.732Z,1027.47
2019-05-15T05:12:03.924Z,1027.48
2019-05-15T05:13:08.915Z,1027.47
2019-05-15T05:14:12.331Z,1027.50
2019-05-15T05:15:19.029Z,1027.48
2019-05-15T05:16:20.731Z,1027.48
2019-05-15T05:17:24.915Z,1027.48
2019-05-15T05:18:29.927Z,1027.48
2019-05-15T05:19:33.420Z,1027.50
2019-05-15T05:20:38.235Z,1027.47
2019-05-15T05:21:41.927Z,1027.48
2019-05-15T05:22:48.215Z,1027.50
2019-05-15T05:23:50.420Z,1027.49
2019-05-15T05:24:54.492Z,1027.51
2019-05-15T05:25:58.800Z,1027.52
2019-05-15T05:27:02.909Z,1027.52
2019-05-15T05:28:08.720Z,1027.51
2019-05-15T05:29:11.580Z,1027.50
2019-05-15T05:30:15.741Z,1027.49
2019-05-15T05:31:19.966Z,1027.51
2019-05-15T05:32:31.988Z,1027.48
2019-05-15T05:33:28.844Z,1027.47
2019-05-15T05:34:32.737Z,1027.49
2019-05-15T05:35:38.757Z,1027.48
2019-05-15T05:36:41.280Z,1027.48
2019-05-15T05:37:47.942Z,1027.47
2019-05-15T05:38:49.716Z,1027.46
2019-05-15T05:39:53.991Z,1027.47
2019-05-15T05:40:58.834Z,1027.40
2019-05-15T05:42:02.483Z,1027.42
2019-05-15T05:43:09.311Z,1027.42
2019-05-15T05:44:11.026Z,1027.42
2019-05-15T05:45:15.330Z,1027.41
2019-05-15T05:46:19.537Z,1027.39
2019-05-15T05:47:23.865Z,1027.36
2019-05-15T05:48:29.247Z,1027.33
2019-05-15T05:49:32.407Z,1027.35
2019-05-15T05:50:38.498Z,1027.36
2019-05-15T05:51:41.050Z,1027.37
2019-05-15T05:52:45.291Z,1027.38
2019-05-15T05:53:49.579Z,1027.36
2019-05-15T05:54:53.909Z,1027.36
2019-05-15T05:55:58.234Z,1027.33
2019-05-15T05:57:02.459Z,1027.32
2019-05-15T05:58:08.162Z,1027.34
2019-05-15T05:59:10.950Z,1027.37
2019-05-15T06:00:15.271Z,1027.36
2019-05-15T06:01:19.548Z,1027.38
2019-05-15T06:02:23.932Z,1027.39
2019-05-15T06:03:28.312Z,1027.43
2019-05-15T06:04:32.392Z,1027.42
2019-05-15T06:05:38.751Z,1027.47
2019-05-15T06:06:40.950Z,1027.48
2019-05-15T06:07:45.222Z,1027.51
2019-05-15T06:08:49.544Z,1027.51
2019-05-15T06:09:53.780Z,1027.52
2019-05-15T06:10:58.660Z,1027.53
2019-05-15T06:12:02.315Z,1027.53
2019-05-15T06:13:08.666Z,1027.50
2019-05-15T06:14:10.879Z,1027.48
2019-05-15T06:15:15.173Z,1027.48
2019-05-15T06:16:19.365Z,1027.46
2019-05-15T06:17:23.796Z,1027.45
2019-05-15T06:18:28.306Z,1027.44
2019-05-15T06:19:32.268Z,1027.41
2019-05-15T06:20:36.628Z,1027.41
2019-05-15T06:21:53.652Z,1027.41
2019-05-15T06:22:45.177Z,1027.43
2019-05-15T06:23:55.186Z,1027.44
2019-05-15T06:24:53.927Z,1027.41
2019-05-15T06:25:59.234Z,1027.42
2019-05-15T06:27:02.533Z,1027.42
2019-05-15T06:28:08.957Z,1027.39
2019-05-15T06:29:11.116Z,1027.36
2019-05-15T06:30:22.147Z,1027.33
2019-05-15T06:31:19.651Z,1027.32
2019-05-15T06:32:24.012Z,1027.37
2019-05-15T06:33:28.254Z,1027.36
2019-05-15T06:34:32.630Z,1027.37
2019-05-15T06:35:39.225Z,1027.34
2019-05-15T06:36:41.367Z,1027.36
2019-05-15T06:37:45.618Z,1027.35
2019-05-15T06:38:49.907Z,1027.30
2019-05-15T06:39:54.184Z,1027.33
2019-05-15T06:40:58.496Z,1027.29
2019-05-15T06:42:02.791Z,1027.27
2019-05-15T06:43:08.751Z,1027.27
2019-05-15T06:44:11.445Z,1027.27
2019-05-15T06:45:15.665Z,1027.28
2019-05-15T06:46:20.002Z,1027.28
2019-05-15T06:47:24.296Z,1027.27
2019-05-15T06:48:29.002Z,1027.26
2019-05-15T06:49:32.932Z,1027.22
2019-05-15T06:50:38.298Z,1027.23
2019-05-15T06:51:41.517Z,1027.23
2019-05-15T06:52:45.807Z,1027.21
2019-05-15T06:53:53.144Z,1027.23
2019-05-15T06:54:59.089Z,1027.25
2019-05-15T06:56:00.918Z,1027.22
2019-05-15T06:57:05.252Z,1027.22
2019-05-15T06:58:09.510Z,1027.25
2019-05-15T06:59:13.844Z,1027.24
2019-05-15T07:00:19.166Z,1027.25
2019-05-15T07:01:22.448Z,1027.24
2019-05-15T07:02:28.533Z,1027.23
2019-05-15T07:03:31.028Z,1027.22
2019-05-15T07:04:35.325Z,1027.21
2019-05-15T07:05:39.702Z,1027.21
2019-05-15T07:06:44.087Z,1027.18
2019-05-15T07:07:48.880Z,1027.19
2019-05-15T07:08:52.685Z,1027.22
2019-05-15T07:09:58.209Z,1027.20
2019-05-15T07:11:01.380Z,1027.20
2019-05-15T07:12:07.935Z,1027.19
2019-05-15T07:13:10.042Z,1027.20
2019-05-15T07:14:14.407Z,1027.21
2019-05-15T07:15:18.680Z,1027.16
2019-05-15T07:16:22.968Z,1027.18
2019-05-15T07:17:28.705Z,1027.14
2019-05-15T07:18:31.703Z,1027.13
2019-05-15T07:19:36.046Z,1027.12
2019-05-15T07:20:40.294Z,1027.14
2019-05-15T07:21:44.650Z,1027.08
2019-05-15T07:22:49.262Z,1027.09
2019-05-15T07:23:53.284Z,1027.07
2019-05-15T07:24:58.302Z,1027.11
2019-05-15T07:26:01.920Z,1027.06
2019-05-15T07:27:08.000Z,1027.08
2019-05-15T07:28:10.613Z,1027.09
2019-05-15T07:29:14.961Z,1027.11
2019-05-15T07:30:19.214Z,1027.09
2019-05-15T07:31:23.597Z,1027.08
2019-05-15T07:32:28.545Z,1027.09
2019-05-15T07:33:39.365Z,1027.10
2019-05-15T07:34:37.881Z,1027.11
2019-05-15T07:35:40.842Z,1027.07
2019-05-15T07:36:45.086Z,1027.04
2019-05-15T07:37:49.519Z,1027.02
2019-05-15T07:38:53.741Z,1027.03
2019-05-15T07:39:59.054Z,1027.01
2019-05-15T07:41:04.463Z,1026.99
2019-05-15T07:42:08.567Z,1027.00
2019-05-15T07:43:11.086Z,1026.99
2019-05-15T07:44:15.393Z,1027.03
2019-05-15T07:45:19.911Z,1026.98
2019-05-15T07:46:23.953Z,1026.98
2019-05-15T07:47:29.313Z,1026.99
2019-05-15T07:48:32.581Z,1026.99
2019-05-15T07:49:38.847Z,1027.01
2019-05-15T07:50:41.168Z,1027.03
2019-05-15T07:51:45.483Z,1027.01
2019-05-15T07:52:49.818Z,1026.99
2019-05-15T07:53:54.122Z,1026.99
2019-05-15T07:54:58.465Z,1027.00
2019-05-15T07:56:02.711Z,1026.97
2019-05-15T07:57:08.977Z,1027.00
2019-05-15T07:58:11.357Z,1027.01
2019-05-15T07:59:15.660Z,1026.97
2019-05-15T08:00:19.915Z,1026.95
2019-05-15T08:01:24.205Z,1026.93
2019-05-15T08:02:28.560Z,1026.93
2019-05-15T08:03:32.901Z,1026.94
2019-05-15T08:04:38.037Z,1026.94
2019-05-15T08:05:55.022Z,1026.94
2019-05-15T08:06:45.812Z,1026.91
2019-05-15T08:07:50.128Z,1026.92
2019-05-15T08:08:54.448Z,1026.91
2019-05-15T08:09:59.361Z,1026.91
2019-05-15T08:11:16.112Z,1026.89
2019-05-15T08:12:08.276Z,1026.88
2019-05-15T08:13:11.767Z,1026.84
2019-05-15T08:14:18.306Z,1026.85
2019-05-15T08:15:20.420Z,1026.83
2019-05-15T08:16:24.716Z,1026.84
2019-05-15T08:17:29.137Z,1026.78
2019-05-15T08:18:33.491Z,1026.81
2019-05-15T08:19:38.473Z,1026.84
2019-05-15T08:20:42.148Z,1026.82
2019-05-15T08:21:51.396Z,1026.74
2019-05-15T08:22:50.776Z,1026.80
2019-05-15T08:23:55.134Z,1026.78
2019-05-15T08:24:59.651Z,1026.79
2019-05-15T08:26:03.830Z,1026.78
2019-05-15T08:27:08.385Z,1026.72
2019-05-15T08:28:12.530Z,1026.77
2019-05-15T08:29:21.479Z,1026.75
2019-05-15T08:30:21.215Z,1026.74
2019-05-15T08:31:25.477Z,1026.71
2019-05-15T08:32:29.818Z,1026.72
2019-05-15T08:33:34.245Z,1026.67
2019-05-15T08:34:38.751Z,1026.69
2019-05-15T08:35:45.857Z,1026.68
2019-05-15T08:36:48.191Z,1026.71
2019-05-15T08:37:51.553Z,1026.70
2019-05-15T08:38:55.859Z,1026.68
2019-05-15T08:40:00.178Z,1026.65
2019-05-15T08:41:04.580Z,1026.62
2019-05-15T08:42:08.906Z,1026.61
2019-05-15T08:43:13.274Z,1026.64
2019-05-15T08:44:18.716Z,1026.64
2019-05-15T08:45:21.971Z,1026.67
2019-05-15T08:46:27.962Z,1026.66
2019-05-15T08:47:30.646Z,1026.64
2019-05-15T08:48:34.921Z,1026.62
2019-05-15T08:49:40.909Z,1026.58
2019-05-15T08:50:43.612Z,1026.56
2019-05-15T08:51:48.640Z,1026.57
2019-05-15T08:52:52.327Z,1026.46
2019-05-15T08:53:57.947Z,1026.51
2019-05-15T08:55:01.041Z,1026.46
2019-05-15T08:56:05.449Z,1026.50
2019-05-15T08:57:09.775Z,1026.51
2019-05-15T08:58:14.246Z,1026.49
2019-05-15T08:59:18.890Z,1026.50
2019-05-15T09:00:22.668Z,1026.48
2019-05-15T09:01:28.801Z,1026.54
2019-05-15T09:02:31.331Z,1026.51
2019-05-15T09:03:37.901Z,1026.51
2019-05-15T09:04:39.997Z,1026.54
2019-05-15T09:05:44.404Z,1026.53
2019-05-15T09:06:49.683Z,1026.54
2019-05-15T09:07:53.063Z,1026.54
2019-05-15T09:08:58.525Z,1026.57
2019-05-15T09:10:01.641Z,1026.53
2019-05-15T09:11:08.455Z,1026.54
2019-05-15T09:12:10.343Z,1026.54
2019-05-15T09:13:14.709Z,1026.55
2019-05-15T09:14:19.010Z,1026.53
2019-05-15T09:15:23.343Z,1026.51
2019-05-15T09:16:28.113Z,1026.48
2019-05-15T09:17:32.073Z,1026.53
2019-05-15T09:18:38.923Z,1026.52
2019-05-15T09:19:40.739Z,1026.49
2019-05-15T09:20:44.942Z,1026.41
2019-05-15T09:21:49.602Z,1026.39
2019-05-15T09:22:53.593Z,1026.39
2019-05-15T09:23:58.881Z,1026.37
2019-05-15T09:25:02.321Z,1026.35
2019-05-15T09:26:09.268Z,1026.33
2019-05-15T09:27:10.902Z,1026.33
2019-05-15T09:28:15.219Z,1026.30
2019-05-15T09:29:19.485Z,1026.31
2019-05-15T09:30:23.791Z,1026.32
2019-05-15T09:31:28.579Z,1026.31
2019-05-15T09:32:32.444Z,1026.30
2019-05-15T09:33:38.648Z,1026.28
2019-05-15T09:34:50.975Z,1026.25
2019-05-15T09:35:45.449Z,1026.23
2019-05-15T09:36:49.779Z,1026.22
2019-05-15T09:37:54.060Z,1026.23
2019-05-15T09:38:58.651Z,1026.22
2019-05-15T09:40:02.820Z,1026.24
2019-05-15T09:41:09.031Z,1026.24
2019-05-15T09:42:11.469Z,1026.24
2019-05-15T09:43:17.987Z,1026.26
2019-05-15T09:44:21.606Z,1026.27
2019-05-15T09:45:24.591Z,1026.29
2019-05-15T09:46:29.287Z,1026.23
2019-05-15T09:47:33.276Z,1026.17
2019-05-15T09:48:39.047Z,1026.24
2019-05-15T09:49:41.937Z,1026.22
2019-05-15T09:50:46.189Z,1026.14
2019-05-15T09:51:50.496Z,1026.08
2019-05-15T09:52:54.804Z,1026.10
2019-05-15T09:53:59.700Z,1026.11
2019-05-15T09:55:03.436Z,1026.05
2019-05-15T09:56:08.167Z,1026.09
2019-05-15T09:57:12.132Z,1026.06
2019-05-15T09:58:19.643Z,1026.08
2019-05-15T09:59:20.901Z,1026.03
2019-05-15T10:00:25.143Z,1026.06
2019-05-15T10:01:29.470Z,1026.03
2019-05-15T10:02:33.766Z,1026.02
2019-05-15T10:03:39.581Z,1025.98
2019-05-15T10:04:42.534Z,1025.98
2019-05-15T10:05:48.280Z,1026.01
2019-05-15T10:06:51.218Z,1025.95
2019-05-15T10:07:55.581Z,1025.93
2019-05-15T10:08:59.864Z,1025.97
2019-05-15T10:10:04.177Z,1025.93
2019-05-15T10:11:09.268Z,1025.92
2019-05-15T10:12:12.919Z,1025.94
2019-05-15T10:13:18.416Z,1025.90
2019-05-15T10:14:21.502Z,1025.91
2019-05-15T10:15:25.839Z,1025.94
2019-05-15T10:16:30.151Z,1025.88
2019-05-15T10:17:34.580Z,1025.90
2019-05-15T10:18:39.349Z,1025.88
2019-05-15T10:19:43.219Z,1025.89
2019-05-15T10:20:47.616Z,1025.86
2019-05-15T10:21:53.502Z,1025.90
2019-05-15T10:22:56.219Z,1025.91
2019-05-15T10:24:00.635Z,1025.95
2019-05-15T10:25:04.999Z,1025.93
2019-05-15T10:26:13.569Z,1025.92
2019-05-15T10:27:13.723Z,1025.88
2019-05-15T10:28:18.743Z,1025.86
2019-05-15T10:29:22.435Z,1025.82
2019-05-15T10:30:28.359Z,1025.80
2019-05-15T10:31:31.134Z,1025.81
2019-05-15T10:32:35.442Z,1025.76
2019-05-15T10:33:39.714Z,1025.72
2019-05-15T10:34:44.120Z,1025.69
2019-05-15T10:35:48.480Z,1025.76
2019-05-15T10:36:52.790Z,1025.73
2019-05-15T10:37:59.215Z,1025.70
2019-05-15T10:39:01.542Z,1025.70
2019-05-15T10:40:05.849Z,1025.73
2019-05-15T10:41:15.024Z,1025.71
2019-05-15T10:42:14.425Z,1025.73
2019-05-15T10:43:20.491Z,1025.73
2019-05-15T10:44:23.234Z,1025.67
2019-05-15T10:45:29.581Z,1025.67
2019-05-15T10:46:31.909Z,1025.75
2019-05-15T10:47:38.751Z,1025.70
2019-05-15T10:48:40.624Z,1025.70
2019-05-15T10:49:44.989Z,1025.64
2019-05-15T10:50:49.348Z,1025.65
2019-05-15T10:51:53.631Z,1025.66
2019-05-15T10:52:58.089Z,1025.59
2019-05-15T10:54:02.425Z,1025.58
2019-05-15T10:55:09.265Z,1025.61
2019-05-15T10:56:11.190Z,1025.60
2019-05-15T10:57:15.531Z,1025.52
2019-05-15T10:58:22.053Z,1025.52
2019-05-15T10:59:24.293Z,1025.52
2019-05-15T11:00:28.770Z,1025.52
2019-05-15T11:01:32.954Z,1025.48
2019-05-15T11:02:39.342Z,1025.46
2019-05-15T11:03:41.764Z,1025.48
2019-05-15T11:04:48.586Z,1025.47
2019-05-15T11:05:50.421Z,1025.50
2019-05-15T11:06:54.848Z,1025.46
2019-05-15T11:07:59.139Z,1025.43
2019-05-15T11:09:03.458Z,1025.44
2019-05-15T11:10:08.609Z,1025.44
2019-05-15T11:11:12.078Z,1025.44
2019-05-15T11:12:18.844Z,1025.39
2019-05-15T11:13:20.744Z,1025.40
2019-05-15T11:14:25.083Z,1025.39
2019-05-15T11:15:29.449Z,1025.39
2019-05-15T11:16:33.826Z,1025.28
2019-05-15T11:17:38.676Z,1025.43
2019-05-15T11:18:42.623Z,1025.38
2019-05-15T11:19:49.933Z,1025.32
2019-05-15T11:20:51.151Z,1025.33
2019-05-15T11:21:55.471Z,1025.31
2019-05-15T11:22:59.795Z,1025.32
2019-05-15T11:24:04.214Z,1025.27
2019-05-15T11:25:09.903Z,1025.26
2019-05-15T11:26:12.915Z,1025.29
2019-05-15T11:27:19.088Z,1025.24
2019-05-15T11:28:21.604Z,1025.20
2019-05-15T11:29:25.959Z,1025.17
2019-05-15T11:30:30.369Z,1025.13
2019-05-15T11:31:34.751Z,1025.16
2019-05-15T11:32:39.416Z,1025.19
2019-05-15T11:33:43.469Z,1025.16
2019-05-15T11:34:49.299Z,1025.12
2019-05-15T11:36:01.197Z,1025.13
2019-05-15T11:36:59.095Z,1025.11
2019-05-15T11:38:00.831Z,1025.12
2019-05-15T11:39:05.186Z,1025.13
2019-05-15T11:40:10.469Z,1025.16
2019-05-15T11:41:13.894Z,1025.20
2019-05-15T11:42:20.273Z,1025.14
2019-05-15T11:43:22.514Z,1025.12
2019-05-15T11:44:28.315Z,1025.07
2019-05-15T11:45:31.273Z,1025.12
2019-05-15T11:46:35.555Z,1025.10
2019-05-15T11:47:40.418Z,1025.08
2019-05-15T11:48:44.331Z,1025.02
2019-05-15T11:49:48.555Z,1025.08
2019-05-15T11:50:52.982Z,1025.03
2019-05-15T11:52:00.554Z,1025.04
2019-05-15T11:53:01.701Z,1025.05
2019-05-15T11:54:08.195Z,1025.01
2019-05-15T11:55:10.568Z,1025.08
2019-05-15T11:56:14.945Z,1025.06
2019-05-15T11:57:19.341Z,1025.05
2019-05-15T11:58:23.653Z,1025.02
2019-05-15T11:59:30.054Z,1025.03
2019-05-15T12:00:32.404Z,1024.96
2019-05-15T12:01:38.282Z,1024.98
2019-05-15T12:02:41.076Z,1024.98
2019-05-15T12:03:45.491Z,1024.97
2019-05-15T12:04:49.887Z,1025.01
2019-05-15T12:05:54.191Z,1025.02
2019-05-15T12:07:02.309Z,1025.00
2019-05-15T12:08:02.826Z,1024.98
2019-05-15T12:09:09.092Z,1024.99
2019-05-15T12:10:11.568Z,1024.97
2019-05-15T12:11:31.234Z,1024.96
2019-05-15T12:12:20.281Z,1024.99
2019-05-15T12:13:24.667Z,1025.03
2019-05-15T12:14:29.731Z,1025.00
2019-05-15T12:15:33.336Z,1024.98
2019-05-15T12:16:39.884Z,1024.97
2019-05-15T12:17:42.140Z,1024.96
2019-05-15T12:18:48.352Z,1024.95
2019-05-15T12:19:55.129Z,1024.97
2019-05-15T12:20:55.188Z,1024.99
2019-05-15T12:21:59.964Z,1024.92
2019-05-15T12:23:03.796Z,1024.90
2019-05-15T12:24:09.023Z,1024.88
2019-05-15T12:25:12.526Z,1024.88
2019-05-15T12:26:16.838Z,1024.88
2019-05-15T12:27:21.149Z,1024.86
2019-05-15T12:28:25.536Z,1024.92
2019-05-15T12:29:30.098Z,1024.95
2019-05-15T12:30:34.334Z,1024.98
2019-05-15T12:31:39.085Z,1024.94
2019-05-15T12:32:43.178Z,1024.90
2019-05-15T12:33:48.961Z,1024.92
2019-05-15T12:34:51.953Z,1024.91
2019-05-15T12:35:56.348Z,1024.92
2019-05-15T12:37:00.750Z,1024.89
2019-05-15T12:38:05.124Z,1024.89
2019-05-15T12:39:13.636Z,1024.88
2019-05-15T13:00:38.302Z,1024.77
2019-05-15T13:01:40.978Z,1024.83
2019-05-15T13:02:45.324Z,1024.78
2019-05-15T13:03:49.635Z,1024.82
2019-05-15T13:04:53.934Z,1024.84
2019-05-15T13:05:58.349Z,1024.80
2019-05-15T13:07:12.656Z,1024.80
2019-05-15T13:08:08.398Z,1024.77
2019-05-15T13:09:11.325Z,1024.74
2019-05-15T13:10:18.239Z,1024.72
2019-05-15T13:11:20.048Z,1024.76
2019-05-15T13:12:24.304Z,1024.75
2019-05-15T13:13:28.693Z,1024.77
2019-05-15T13:14:33.091Z,1024.78
2019-05-15T13:15:41.114Z,1024.79
2019-05-15T13:16:41.742Z,1024.76
2019-05-15T13:17:46.129Z,1024.78